Thomson Majesty — 9HA2188 — position and weather

sailwx.info

Track history (hours):
 
Tides and Currents Weather Stations Pressure Air Temp Water Temp Dewpoint Dewpoint Depression Visibility Wind Speed Wind Dir Waves Ship Positions

Thomson Majesty

Last reported at 2016-Jun-29 06:19 UTC. Time now 2016-Jun-29 09:17 UTC.
Position N 40°42' E 003°38'.

Length 207 m; draft 6.2 m.

Type: Ship. MMSI: 248124000.

Date/timePositionNaut miles runAvg speedWind from/ knotsBaromVisibWave heightAir tempDewpointWater temp
2016-Jun-29 06:19N 40°42' E 003°38'1012.9
2016-Jun-29 05:33N 40°35' E 003°29'1312.9
2016-Jun-29 04:33N 40°25' E 003°18'1413.5
2016-Jun-29 03:33N 40°15' E 003°05'1413.6
2016-Jun-29 02:33N 40°06' E 002°53'1313.5
2016-Jun-29 01:33N 39°56' E 002°41'1413.6
2016-Jun-29 00:33N 39°46' E 002°29'1413.9
2016-Jun-28 23:33N 39°35' E 002°17'1312.5
2016-Jun-28 22:33N 39°26' E 002°28'1110.8
2016-Jun-28 21:33N 39°33' E 002°39'1 0.7
2016-Jun-28 20:33N 39°33' E 002°38'0 0.0
2016-Jun-28 19:33N 39°33' E 002°38'0 0.0
2016-Jun-28 18:33N 39°33' E 002°38'0 0.0
2016-Jun-28 17:33N 39°33' E 002°38'0 0.0
2016-Jun-28 16:33N 39°33' E 002°38'0 0.0
2016-Jun-28 15:33N 39°33' E 002°38'0 0.0
2016-Jun-28 14:33N 39°33' E 002°38'0 0.0
2016-Jun-28 13:33N 39°33' E 002°38'0 0.0
2016-Jun-28 12:33N 39°33' E 002°38'0 0.0
2016-Jun-28 11:33N 39°33' E 002°38'0 0.0
2016-Jun-28 10:33N 39°33' E 002°38'0 0.0
2016-Jun-28 09:33N 39°33' E 002°38'0 0.0
2016-Jun-28 08:33N 39°33' E 002°38'0 0.0
2016-Jun-28 07:33N 39°33' E 002°38'0 0.0
2016-Jun-28 06:33N 39°33' E 002°38'0 0.0
2016-Jun-28 04:33N 39°33' E 002°38'0 0.0
2016-Jun-28 03:33N 39°33' E 002°38'5 4.9
2016-Jun-28 02:33N 39°29' E 002°40'8 8.4
2016-Jun-28 01:33N 39°21' E 002°44'8 8.0
2016-Jun-28 00:33N 39°17' E 002°53'9 8.9
2016-Jun-27 23:33N 39°14' E 003°04'9 9.5
2016-Jun-27 22:33N 39°18' E 003°15'1010.4
2016-Jun-27 21:33N 39°23' E 003°26'1010.1
2016-Jun-27 20:33N 39°28' E 003°38'12 9.9
2016-Jun-27 19:19N 39°34' E 003°51'810.0
2016-Jun-27 18:32N 39°38' E 004°00'1010.2
2016-Jun-27 17:33N 39°43' E 004°12'264 6.6
2016-Jun-26 01:33N 41°25' E 009°32'1513.0
2016-Jun-26 00:22N 41°31' E 009°51'1012.6
2016-Jun-25 23:33N 41°35' E 010°03'1312.7
2016-Jun-25 22:33N 41°40' E 010°19'1312.8
2016-Jun-25 21:33N 41°45' E 010°35'1512.5
2016-Jun-25 20:19N 41°51' E 010°54'1012.5
2016-Jun-25 19:33N 41°55' E 011°06'1612.7
2016-Jun-25 18:17N 42°01' E 011°26'912.4
2016-Jun-25 17:33N 42°04' E 011°37'7 1.7
2016-Jun-25 13:11N 42°06' E 011°46'53 4.1
2016-Jun-25 00:11N 41°22' E 012°28'4315.1
2016-Jun-24 21:20N 40°58' E 013°15'1114.0
2016-Jun-24 20:34N 40°52' E 013°27'1312.8
2016-Jun-24 19:33N 40°45' E 013°41'1312.6
2016-Jun-24 18:33N 40°39' E 013°56'1313.0
2016-Jun-24 17:33N 40°40' E 014°13'8 7.7
2016-Jun-24 16:33N 40°38' E 014°23'0 0.1
2016-Jun-24 15:33N 40°38' E 014°23'0 0.1
2016-Jun-24 14:33N 40°38' E 014°23'0 0.0
2016-Jun-24 13:33N 40°38' E 014°23'0 0.0
2016-Jun-24 12:33N 40°38' E 014°23'0 0.0
2016-Jun-24 11:27N 40°38' E 014°23'0 0.0
2016-Jun-24 10:33N 40°38' E 014°23'0 0.0
2016-Jun-24 09:33N 40°38' E 014°23'0 0.0
2016-Jun-24 08:33N 40°38' E 014°23'0 0.0
2016-Jun-24 07:33N 40°38' E 014°23'45 7.3
2016-Jun-24 01:17N 40°02' E 013°48'1014.0
2016-Jun-24 00:33N 39°52' E 013°41'2713.4
2016-Jun-23 22:33N 39°29' E 013°25'4213.1
2016-Jun-23 19:23N 38°52' E 013°01'1113.1
2016-Jun-23 18:33N 38°42' E 012°54'1515.3
2016-Jun-23 17:34N 38°29' E 012°45'1616.2
2016-Jun-23 16:33N 38°14' E 012°35'1515.4
2016-Jun-23 15:33N 38°00' E 012°28'2 1.8
2016-Jun-23 14:22N 38°01' E 012°30'0 0.0
2016-Jun-23 13:25N 38°01' E 012°30'0 0.0
2016-Jun-23 12:25N 38°01' E 012°30'0 0.0
2016-Jun-23 11:25N 38°01' E 012°30'0 0.0
2016-Jun-23 10:25N 38°01' E 012°30'0 0.0
2016-Jun-23 09:28N 38°01' E 012°30'0 0.0
2016-Jun-23 08:28N 38°01' E 012°30'0 0.0
2016-Jun-23 07:31N 38°01' E 012°30'0 0.0
2016-Jun-23 05:33N 38°01' E 012°30'9 9.2
2016-Jun-23 04:33N 38°02' E 012°19'1616.2
2016-Jun-23 03:33N 38°05' E 011°59'11716.5
2016-Jun-22 20:30N 38°24' E 009°32'1616.8
2016-Jun-22 19:32N 38°26' E 009°12'1716.6
2016-Jun-22 18:33N 38°29' E 008°51'1716.7
2016-Jun-22 17:32N 38°32' E 008°29'13616.7
2016-Jun-22 09:26N 38°53' E 005°38'4016.8
2016-Jun-22 07:03N 38°60' E 004°48'917.8
2016-Jun-22 06:34N 39°01' E 004°36'1817.6
2016-Jun-22 05:33N 39°04' E 004°14'1817.1
2016-Jun-22 04:28N 39°07' E 003°50'1617.2
2016-Jun-22 03:33N 39°10' E 003°30'1717.2
2016-Jun-22 02:33N 39°12' E 003°08'1717.0
2016-Jun-22 01:33N 39°20' E 002°49'1414.6
2016-Jun-22 00:33N 39°32' E 002°39'1 1.4
2016-Jun-21 23:31N 39°33' E 002°38'0 0.0
2016-Jun-21 22:31N 39°33' E 002°38'0 0.0
2016-Jun-21 21:31N 39°33' E 002°38'0 0.0
2016-Jun-21 20:31N 39°33' E 002°38'0 0.0
2016-Jun-21 19:31N 39°33' E 002°38'0 0.0
2016-Jun-21 18:31N 39°33' E 002°38'0 0.0
2016-Jun-21 17:31N 39°33' E 002°38'0 0.0
2016-Jun-21 16:31N 39°33' E 002°38'0 0.0
2016-Jun-21 15:31N 39°33' E 002°38'0 0.0
2016-Jun-21 14:31N 39°33' E 002°38'0 0.0
2016-Jun-21 13:31N 39°33' E 002°38'0 0.0
2016-Jun-21 12:31N 39°33' E 002°38'0 0.0
2016-Jun-21 11:31N 39°33' E 002°38'0 0.0
2016-Jun-21 10:31N 39°33' E 002°38'0 0.0
2016-Jun-21 09:31N 39°33' E 002°38'0 0.0
2016-Jun-21 08:31N 39°33' E 002°38'0 0.0
2016-Jun-21 07:31N 39°33' E 002°38'0 0.0
2016-Jun-21 04:31N 39°33' E 002°38'0 0.0
2016-Jun-21 03:33N 39°33' E 002°38'6 5.7
2016-Jun-21 02:33N 39°28' E 002°35'1212.1
2016-Jun-21 01:33N 39°23' E 002°21'1312.7
2016-Jun-21 00:33N 39°19' E 002°05'1313.0
2016-Jun-20 23:33N 39°14' E 001°49'1313.1
2016-Jun-20 22:33N 39°10' E 001°33'1312.9
2016-Jun-20 21:33N 39°05' E 001°18'1513.0
2016-Jun-20 20:24N 38°58' E 001°01'5413.2
2016-Jun-20 16:19N 38°29' E 000°03'1513.6
2016-Jun-20 15:11N 38°22' W 000°15'11 1.2
2016-Jun-20 05:25N 38°20' W 000°29'910.0
2016-Jun-20 04:33N 38°12' W 000°23'1414.6
2016-Jun-20 03:33N 37°58' W 000°26'1211.8
2016-Jun-20 02:33N 37°46' W 000°27'1615.9
2016-Jun-20 01:33N 37°31' W 000°33'1716.9
2016-Jun-20 00:33N 37°19' W 000°48'1716.8
2016-Jun-19 23:33N 37°08' W 001°04'1717.0
2016-Jun-19 22:33N 36°58' W 001°21'1612.5
2016-Jun-19 21:19N 36°48' W 001°35'1012.9
2016-Jun-19 20:33N 36°41' W 001°44'1312.7
2016-Jun-19 19:33N 36°33' W 001°56'1313.2
2016-Jun-19 18:33N 36°24' W 002°08'1312.7
2016-Jun-19 17:33N 36°22' W 002°24'1110.6
2016-Jun-19 16:34N 36°32' W 002°27'1212.4
2016-Jun-19 15:34N 36°45' W 002°27'5 5.0
2016-Jun-19 14:32N 36°50' W 002°28'0 0.0
2016-Jun-19 13:32N 36°50' W 002°28'0 0.0
2016-Jun-19 12:32N 36°50' W 002°28'0 0.0
2016-Jun-19 11:32N 36°50' W 002°28'0 0.0
2016-Jun-19 10:32N 36°50' W 002°28'0 0.0
2016-Jun-19 09:32N 36°50' W 002°28'0 0.0
2016-Jun-19 08:32N 36°50' W 002°28'0 0.0
2016-Jun-19 07:32N 36°50' W 002°28'0 0.0
2016-Jun-19 06:32N 36°50' W 002°28'  
Track history (hours):
 
Tides and Currents Weather Stations Pressure Air Temp Water Temp Dewpoint Dewpoint Depression Visibility Wind Speed Wind Dir Waves Ship Positions

Thomson Majesty

Last reported at 2016-Jun-29 06:19 UTC. Time now 2016-Jun-29 09:17 UTC.
Position N 40°42' E 003°38'.

Length 207 m; draft 6.2 m.

Type: Ship. MMSI: 248124000.

Date/timePositionNaut miles runAvg speedWind from/ knotsBaromVisibWave heightAir tempDewpointWater temp
2016-Jun-29 06:19N 40°42' E 003°38'1012.9
2016-Jun-29 05:33N 40°35' E 003°29'1312.9
2016-Jun-29 04:33N 40°25' E 003°18'1413.5
2016-Jun-29 03:33N 40°15' E 003°05'1413.6
2016-Jun-29 02:33N 40°06' E 002°53'1313.5
2016-Jun-29 01:33N 39°56' E 002°41'1413.6
2016-Jun-29 00:33N 39°46' E 002°29'1413.9
2016-Jun-28 23:33N 39°35' E 002°17'1312.5
2016-Jun-28 22:33N 39°26' E 002°28'1110.8
2016-Jun-28 21:33N 39°33' E 002°39'1 0.7
2016-Jun-28 20:33N 39°33' E 002°38'0 0.0
2016-Jun-28 19:33N 39°33' E 002°38'0 0.0
2016-Jun-28 18:33N 39°33' E 002°38'0 0.0
2016-Jun-28 17:33N 39°33' E 002°38'0 0.0
2016-Jun-28 16:33N 39°33' E 002°38'0 0.0
2016-Jun-28 15:33N 39°33' E 002°38'0 0.0
2016-Jun-28 14:33N 39°33' E 002°38'0 0.0
2016-Jun-28 13:33N 39°33' E 002°38'0 0.0
2016-Jun-28 12:33N 39°33' E 002°38'0 0.0
2016-Jun-28 11:33N 39°33' E 002°38'0 0.0
2016-Jun-28 10:33N 39°33' E 002°38'0 0.0
2016-Jun-28 09:33N 39°33' E 002°38'0 0.0
2016-Jun-28 08:33N 39°33' E 002°38'0 0.0
2016-Jun-28 07:33N 39°33' E 002°38'0 0.0
2016-Jun-28 06:33N 39°33' E 002°38'0 0.0
2016-Jun-28 04:33N 39°33' E 002°38'0 0.0
2016-Jun-28 03:33N 39°33' E 002°38'5 4.9
2016-Jun-28 02:33N 39°29' E 002°40'8 8.4
2016-Jun-28 01:33N 39°21' E 002°44'8 8.0
2016-Jun-28 00:33N 39°17' E 002°53'9 8.9
2016-Jun-27 23:33N 39°14' E 003°04'9 9.5
2016-Jun-27 22:33N 39°18' E 003°15'1010.4
2016-Jun-27 21:33N 39°23' E 003°26'1010.1
2016-Jun-27 20:33N 39°28' E 003°38'12 9.9
2016-Jun-27 19:19N 39°34' E 003°51'810.0
2016-Jun-27 18:32N 39°38' E 004°00'1010.2
2016-Jun-27 17:33N 39°43' E 004°12'264 6.6
2016-Jun-26 01:33N 41°25' E 009°32'1513.0
2016-Jun-26 00:22N 41°31' E 009°51'1012.6
2016-Jun-25 23:33N 41°35' E 010°03'1312.7
2016-Jun-25 22:33N 41°40' E 010°19'1312.8
2016-Jun-25 21:33N 41°45' E 010°35'1512.5
2016-Jun-25 20:19N 41°51' E 010°54'1012.5
2016-Jun-25 19:33N 41°55' E 011°06'1612.7
2016-Jun-25 18:17N 42°01' E 011°26'912.4
2016-Jun-25 17:33N 42°04' E 011°37'7 1.7
2016-Jun-25 13:11N 42°06' E 011°46'53 4.1
2016-Jun-25 00:11N 41°22' E 012°28'4315.1
2016-Jun-24 21:20N 40°58' E 013°15'1114.0
2016-Jun-24 20:34N 40°52' E 013°27'1312.8
2016-Jun-24 19:33N 40°45' E 013°41'1312.6
2016-Jun-24 18:33N 40°39' E 013°56'1313.0
2016-Jun-24 17:33N 40°40' E 014°13'8 7.7
2016-Jun-24 16:33N 40°38' E 014°23'0 0.1
2016-Jun-24 15:33N 40°38' E 014°23'0 0.1
2016-Jun-24 14:33N 40°38' E 014°23'0 0.0
2016-Jun-24 13:33N 40°38' E 014°23'0 0.0
2016-Jun-24 12:33N 40°38' E 014°23'0 0.0
2016-Jun-24 11:27N 40°38' E 014°23'0 0.0
2016-Jun-24 10:33N 40°38' E 014°23'0 0.0
2016-Jun-24 09:33N 40°38' E 014°23'0 0.0
2016-Jun-24 08:33N 40°38' E 014°23'0 0.0
2016-Jun-24 07:33N 40°38' E 014°23'45 7.3
2016-Jun-24 01:17N 40°02' E 013°48'1014.0
2016-Jun-24 00:33N 39°52' E 013°41'2713.4
2016-Jun-23 22:33N 39°29' E 013°25'4213.1
2016-Jun-23 19:23N 38°52' E 013°01'1113.1
2016-Jun-23 18:33N 38°42' E 012°54'1515.3
2016-Jun-23 17:34N 38°29' E 012°45'1616.2
2016-Jun-23 16:33N 38°14' E 012°35'1515.4
2016-Jun-23 15:33N 38°00' E 012°28'2 1.8
2016-Jun-23 14:22N 38°01' E 012°30'0 0.0
2016-Jun-23 13:25N 38°01' E 012°30'0 0.0
2016-Jun-23 12:25N 38°01' E 012°30'0 0.0
2016-Jun-23 11:25N 38°01' E 012°30'0 0.0
2016-Jun-23 10:25N 38°01' E 012°30'0 0.0
2016-Jun-23 09:28N 38°01' E 012°30'0 0.0
2016-Jun-23 08:28N 38°01' E 012°30'0 0.0
2016-Jun-23 07:31N 38°01' E 012°30'0 0.0
2016-Jun-23 05:33N 38°01' E 012°30'9 9.2
2016-Jun-23 04:33N 38°02' E 012°19'1616.2
2016-Jun-23 03:33N 38°05' E 011°59'11716.5
2016-Jun-22 20:30N 38°24' E 009°32'1616.8
2016-Jun-22 19:32N 38°26' E 009°12'1716.6
2016-Jun-22 18:33N 38°29' E 008°51'1716.7
2016-Jun-22 17:32N 38°32' E 008°29'13616.7
2016-Jun-22 09:26N 38°53' E 005°38'4016.8
2016-Jun-22 07:03N 38°60' E 004°48'917.8
2016-Jun-22 06:34N 39°01' E 004°36'1817.6
2016-Jun-22 05:33N 39°04' E 004°14'1817.1
2016-Jun-22 04:28N 39°07' E 003°50'1617.2
2016-Jun-22 03:33N 39°10' E 003°30'1717.2
2016-Jun-22 02:33N 39°12' E 003°08'1717.0
2016-Jun-22 01:33N 39°20' E 002°49'1414.6
2016-Jun-22 00:33N 39°32' E 002°39'1 1.4
2016-Jun-21 23:31N 39°33' E 002°38'0 0.0
2016-Jun-21 22:31N 39°33' E 002°38'0 0.0
2016-Jun-21 21:31N 39°33' E 002°38'0 0.0
2016-Jun-21 20:31N 39°33' E 002°38'0 0.0
2016-Jun-21 19:31N 39°33' E 002°38'0 0.0
2016-Jun-21 18:31N 39°33' E 002°38'0 0.0
2016-Jun-21 17:31N 39°33' E 002°38'0 0.0
2016-Jun-21 16:31N 39°33' E 002°38'0 0.0
2016-Jun-21 15:31N 39°33' E 002°38'0 0.0
2016-Jun-21 14:31N 39°33' E 002°38'0 0.0
2016-Jun-21 13:31N 39°33' E 002°38'0 0.0
2016-Jun-21 12:31N 39°33' E 002°38'0 0.0
2016-Jun-21 11:31N 39°33' E 002°38'0 0.0
2016-Jun-21 10:31N 39°33' E 002°38'0 0.0
2016-Jun-21 09:31N 39°33' E 002°38'0 0.0
2016-Jun-21 08:31N 39°33' E 002°38'0 0.0
2016-Jun-21 07:31N 39°33' E 002°38'0 0.0
2016-Jun-21 04:31N 39°33' E 002°38'0 0.0
2016-Jun-21 03:33N 39°33' E 002°38'6 5.7
2016-Jun-21 02:33N 39°28' E 002°35'1212.1
2016-Jun-21 01:33N 39°23' E 002°21'1312.7
2016-Jun-21 00:33N 39°19' E 002°05'1313.0
2016-Jun-20 23:33N 39°14' E 001°49'1313.1
2016-Jun-20 22:33N 39°10' E 001°33'1312.9
2016-Jun-20 21:33N 39°05' E 001°18'1513.0
2016-Jun-20 20:24N 38°58' E 001°01'5413.2
2016-Jun-20 16:19N 38°29' E 000°03'1513.6
2016-Jun-20 15:11N 38°22' W 000°15'11 1.2
2016-Jun-20 05:25N 38°20' W 000°29'910.0
2016-Jun-20 04:33N 38°12' W 000°23'1414.6
2016-Jun-20 03:33N 37°58' W 000°26'1211.8
2016-Jun-20 02:33N 37°46' W 000°27'1615.9
2016-Jun-20 01:33N 37°31' W 000°33'1716.9
2016-Jun-20 00:33N 37°19' W 000°48'1716.8
2016-Jun-19 23:33N 37°08' W 001°04'1717.0
2016-Jun-19 22:33N 36°58' W 001°21'1612.5
2016-Jun-19 21:19N 36°48' W 001°35'1012.9
2016-Jun-19 20:33N 36°41' W 001°44'1312.7
2016-Jun-19 19:33N 36°33' W 001°56'1313.2
2016-Jun-19 18:33N 36°24' W 002°08'1312.7
2016-Jun-19 17:33N 36°22' W 002°24'1110.6
2016-Jun-19 16:34N 36°32' W 002°27'1212.4
2016-Jun-19 15:34N 36°45' W 002°27'5 5.0
2016-Jun-19 14:32N 36°50' W 002°28'0 0.0
2016-Jun-19 13:32N 36°50' W 002°28'0 0.0
2016-Jun-19 12:32N 36°50' W 002°28'0 0.0
2016-Jun-19 11:32N 36°50' W 002°28'0 0.0
2016-Jun-19 10:32N 36°50' W 002°28'0 0.0
2016-Jun-19 09:32N 36°50' W 002°28'0 0.0
2016-Jun-19 08:32N 36°50' W 002°28'0 0.0
2016-Jun-19 07:32N 36°50' W 002°28'0 0.0
2016-Jun-19 06:32N 36°50' W 002°28'  

Dump ship's entire track history